CheckWX is a tool to help pilots better visualize weather data.  It is not intended as a substitute for an official pre-flight weather briefing.

18:36:11 UTC

KFZY METAR
Oswego County Airport
Fulton, New York, USA
Current

42 mins ago

KFZY 221754Z AUTO 31008KT 10SM SCT029 OVC043 01/M07 A3042 RMK AO2 SLP305 60000 T00111067 10017 20000 50004
Observed
Feb-22 @ 17:54 UTC
Wind
  • 310° at 8 KTS
Visibility
10 SM
Flight Rules
VFR
Cloud Levels
  • Scattered at 2,900' AGL
  • Overcast at 4,300' AGL
Temperature
C / 34°F
Dewpoint
-7°C / 19°F
Humidity
56%
Altimeter
30.42" Hg
Pressure
1030.5 hPa
Previous

2 hours ago

KFZY 221654Z AUTO 36005KT 10SM SCT027 OVC041 01/M06 A3043 RMK AO2 SLP310 T00111061
Observed
Feb-22 @ 16:54 UTC
Wind
  • 360° at 5 KTS
Visibility
10 SM
Flight Rules
VFR
Cloud Levels
  • Scattered at 2,700' AGL
  • Overcast at 4,100' AGL
Temperature
C / 34°F
Dewpoint
-6°C / 21°F
Humidity
60%
Altimeter
30.43" Hg
Pressure
1031 hPa
Previous

2 hours ago

KFZY 221616Z AUTO 02006KT 10SM BKN023 BKN031 OVC044 01/M06 A3042 RMK AO2 T00111056
Observed
Feb-22 @ 16:16 UTC
Wind
  • 020° at 6 KTS
Visibility
10 SM
Flight Rules
MVFR
Cloud Levels
  • Broken at 2,300' AGL
  • Broken at 3,100' AGL
  • Overcast at 4,400' AGL
Temperature
C / 34°F
Dewpoint
-6°C / 21°F
Humidity
60%
Altimeter
30.42" Hg
Pressure
1030.11 hPa